sensor_id;sensor_type;location;lat;lon;timestamp;pressure;altitude;pressure_sealevel;temperature;humidity
19783;BME280;10051;40.294;-3.754;2022-10-14T00:00:39;94948.56;;;19.58;51.64
19783;BME280;10051;40.294;-3.754;2022-10-14T00:03:05;94972.38;;;19.72;51.95
19783;BME280;10051;40.294;-3.754;2022-10-14T00:05:30;94794.66;;;18.50;51.42
19783;BME280;10051;40.294;-3.754;2022-10-14T00:07:56;94826.63;;;18.67;52.17
19783;BME280;10051;40.294;-3.754;2022-10-14T00:10:21;94888.84;;;19.07;51.58
19783;BME280;10051;40.294;-3.754;2022-10-14T00:12:46;94958.75;;;19.47;51.61
19783;BME280;10051;40.294;-3.754;2022-10-14T00:15:13;94789.78;;;18.34;51.75
19783;BME280;10051;40.294;-3.754;2022-10-14T00:17:38;94971.94;;;19.61;51.96
19783;BME280;10051;40.294;-3.754;2022-10-14T00:20:04;94945.91;;;19.14;52.22
19783;BME280;10051;40.294;-3.754;2022-10-14T00:22:30;94958.78;;;19.12;52.68
19783;BME280;10051;40.294;-3.754;2022-10-14T00:24:56;94894.31;;;18.75;52.72
19783;BME280;10051;40.294;-3.754;2022-10-14T00:27:21;94905.91;;;18.88;52.52
19783;BME280;10051;40.294;-3.754;2022-10-14T00:29:47;94850.59;;;18.67;52.13
19783;BME280;10051;40.294;-3.754;2022-10-14T00:32:12;94877.53;;;18.92;52.07
19783;BME280;10051;40.294;-3.754;2022-10-14T00:34:37;94886.50;;;18.96;51.66
19783;BME280;10051;40.294;-3.754;2022-10-14T00:37:03;94884.78;;;19.00;51.45
19783;BME280;10051;40.294;-3.754;2022-10-14T00:39:28;94894.50;;;19.14;51.05
19783;BME280;10051;40.294;-3.754;2022-10-14T00:41:54;94804.53;;;18.58;50.48
19783;BME280;10051;40.294;-3.754;2022-10-14T00:46:46;94846.97;;;18.81;50.67
19783;BME280;10051;40.294;-3.754;2022-10-14T00:49:25;94932.09;;;19.39;51.18
19783;BME280;10051;40.294;-3.754;2022-10-14T00:51:55;94911.88;;;19.29;51.06
19783;BME280;10051;40.294;-3.754;2022-10-14T00:54:33;94864.84;;;18.89;51.14
19783;BME280;10051;40.294;-3.754;2022-10-14T00:57:01;94929.94;;;19.32;51.29
19783;BME280;10051;40.294;-3.754;2022-10-14T00:59:26;94901.22;;;19.11;51.55
19783;BME280;10051;40.294;-3.754;2022-10-14T01:01:52;94893.06;;;18.99;51.47
19783;BME280;10051;40.294;-3.754;2022-10-14T01:04:17;94850.09;;;18.48;52.46
19783;BME280;10051;40.294;-3.754;2022-10-14T01:07:25;94932.69;;;18.83;53.12
19783;BME280;10051;40.294;-3.754;2022-10-14T01:15:27;94938.22;;;19.04;52.75
19783;BME280;10051;40.294;-3.754;2022-10-14T01:18:40;94929.31;;;19.09;52.35
19783;BME280;10051;40.294;-3.754;2022-10-14T01:21:07;94918.66;;;19.09;51.87
19783;BME280;10051;40.294;-3.754;2022-10-14T01:26:35;94854.81;;;18.68;51.72
19783;BME280;10051;40.294;-3.754;2022-10-14T01:31:43;94876.13;;;18.86;51.61
19783;BME280;10051;40.294;-3.754;2022-10-14T01:34:12;94913.28;;;18.91;51.72
19783;BME280;10051;40.294;-3.754;2022-10-14T01:36:46;94901.81;;;18.73;52.31
19783;BME280;10051;40.294;-3.754;2022-10-14T01:39:22;94915.44;;;18.54;52.73
19783;BME280;10051;40.294;-3.754;2022-10-14T01:42:06;94891.41;;;18.36;53.17
19783;BME280;10051;40.294;-3.754;2022-10-14T01:44:34;94896.59;;;18.41;53.37
19783;BME280;10051;40.294;-3.754;2022-10-14T01:47:03;94927.50;;;18.51;54.17
19783;BME280;10051;40.294;-3.754;2022-10-14T01:49:39;94891.13;;;18.38;53.84
19783;BME280;10051;40.294;-3.754;2022-10-14T01:52:10;94930.47;;;18.50;54.43
19783;BME280;10051;40.294;-3.754;2022-10-14T01:54:40;94872.41;;;18.03;54.78
19783;BME280;10051;40.294;-3.754;2022-10-14T01:57:14;94934.69;;;18.51;54.59
19783;BME280;10051;40.294;-3.754;2022-10-14T01:59:43;94946.56;;;18.45;54.84
19783;BME280;10051;40.294;-3.754;2022-10-14T02:02:13;94941.72;;;18.38;55.32
19783;BME280;10051;40.294;-3.754;2022-10-14T02:04:38;94924.91;;;18.28;55.47
19783;BME280;10051;40.294;-3.754;2022-10-14T02:07:12;94935.97;;;18.62;54.87
19783;BME280;10051;40.294;-3.754;2022-10-14T02:15:19;94920.81;;;18.13;56.45
19783;BME280;10051;40.294;-3.754;2022-10-14T02:17:59;94916.94;;;17.97;56.71
19783;BME280;10051;40.294;-3.754;2022-10-14T02:20:40;94864.78;;;17.78;56.67
19783;BME280;10051;40.294;-3.754;2022-10-14T02:25:37;94860.69;;;17.72;57.14
19783;BME280;10051;40.294;-3.754;2022-10-14T02:28:06;94863.06;;;17.82;56.96
19783;BME280;10051;40.294;-3.754;2022-10-14T02:30:36;94797.69;;;17.41;56.94
19783;BME280;10051;40.294;-3.754;2022-10-14T02:33:03;94889.00;;;18.08;56.56
19783;BME280;10051;40.294;-3.754;2022-10-14T02:35:30;94837.63;;;17.59;57.09
19783;BME280;10051;40.294;-3.754;2022-10-14T02:37:57;94905.06;;;17.94;57.97
19783;BME280;10051;40.294;-3.754;2022-10-14T02:40:38;94865.81;;;17.68;58.64
19783;BME280;10051;40.294;-3.754;2022-10-14T02:43:05;94788.06;;;17.22;58.40
19783;BME280;10051;40.294;-3.754;2022-10-14T02:45:34;94861.03;;;17.79;58.21
19783;BME280;10051;40.294;-3.754;2022-10-14T02:48:00;94877.78;;;17.89;58.05
19783;BME280;10051;40.294;-3.754;2022-10-14T02:50:26;94814.97;;;17.30;58.58
19783;BME280;10051;40.294;-3.754;2022-10-14T02:52:51;94817.63;;;17.30;59.52
19783;BME280;10051;40.294;-3.754;2022-10-14T02:55:17;94864.78;;;17.47;59.93
19783;BME280;10051;40.294;-3.754;2022-10-14T02:57:42;94814.41;;;17.10;60.09
19783;BME280;10051;40.294;-3.754;2022-10-14T03:00:09;94875.94;;;17.58;59.82
19783;BME280;10051;40.294;-3.754;2022-10-14T03:02:35;94826.69;;;17.29;59.81
19783;BME280;10051;40.294;-3.754;2022-10-14T03:05:00;94834.75;;;17.46;59.68
19783;BME280;10051;40.294;-3.754;2022-10-14T03:07:26;94806.41;;;17.33;59.62
19783;BME280;10051;40.294;-3.754;2022-10-14T03:09:51;94830.25;;;17.56;59.37
19783;BME280;10051;40.294;-3.754;2022-10-14T03:12:17;94822.81;;;17.35;59.89
19783;BME280;10051;40.294;-3.754;2022-10-14T03:14:42;94799.19;;;17.02;60.36
19783;BME280;10051;40.294;-3.754;2022-10-14T03:17:08;94875.53;;;17.64;59.78
19783;BME280;10051;40.294;-3.754;2022-10-14T03:19:34;94878.69;;;17.75;59.56
19783;BME280;10051;40.294;-3.754;2022-10-14T03:22:00;94876.16;;;17.70;59.65
19783;BME280;10051;40.294;-3.754;2022-10-14T03:24:25;94873.72;;;17.82;59.23
19783;BME280;10051;40.294;-3.754;2022-10-14T03:26:51;94846.81;;;17.52;59.85
19783;BME280;10051;40.294;-3.754;2022-10-14T03:29:16;94820.81;;;17.41;60.46
19783;BME280;10051;40.294;-3.754;2022-10-14T03:31:41;94857.19;;;17.63;60.22
19783;BME280;10051;40.294;-3.754;2022-10-14T03:34:07;94872.19;;;17.59;60.68
19783;BME280;10051;40.294;-3.754;2022-10-14T03:36:33;94779.44;;;17.17;60.25
19783;BME280;10051;40.294;-3.754;2022-10-14T03:38:58;94712.59;;;16.69;60.03
19783;BME280;10051;40.294;-3.754;2022-10-14T03:41:24;94870.47;;;17.54;60.65
19783;BME280;10051;40.294;-3.754;2022-10-14T03:43:50;94837.22;;;17.11;61.76
19783;BME280;10051;40.294;-3.754;2022-10-14T03:46:15;94846.75;;;17.35;61.21
19783;BME280;10051;40.294;-3.754;2022-10-14T03:48:41;94839.50;;;17.27;61.10
19783;BME280;10051;40.294;-3.754;2022-10-14T03:51:06;94855.03;;;17.11;62.29
19783;BME280;10051;40.294;-3.754;2022-10-14T03:53:32;94735.56;;;16.28;62.47
19783;BME280;10051;40.294;-3.754;2022-10-14T03:55:58;94835.03;;;17.13;61.88
19783;BME280;10051;40.294;-3.754;2022-10-14T03:58:23;94771.38;;;16.76;61.93
19783;BME280;10051;40.294;-3.754;2022-10-14T04:00:49;94792.19;;;17.06;61.39
19783;BME280;10051;40.294;-3.754;2022-10-14T04:03:14;94772.50;;;17.07;61.23
19783;BME280;10051;40.294;-3.754;2022-10-14T04:05:40;94792.19;;;17.06;61.20
19783;BME280;10051;40.294;-3.754;2022-10-14T04:08:05;94790.38;;;16.92;61.77
19783;BME280;10051;40.294;-3.754;2022-10-14T04:10:31;94822.34;;;16.87;62.53
19783;BME280;10051;40.294;-3.754;2022-10-14T04:12:56;94834.66;;;16.83;63.21
19783;BME280;10051;40.294;-3.754;2022-10-14T04:15:22;94815.47;;;16.86;63.13
19783;BME280;10051;40.294;-3.754;2022-10-14T04:17:48;94864.56;;;17.34;62.37
19783;BME280;10051;40.294;-3.754;2022-10-14T04:20:14;94803.28;;;16.85;62.54
19783;BME280;10051;40.294;-3.754;2022-10-14T04:22:40;94826.44;;;16.71;63.30
19783;BME280;10051;40.294;-3.754;2022-10-14T04:25:06;94808.53;;;16.76;62.93
19783;BME280;10051;40.294;-3.754;2022-10-14T04:27:32;94877.69;;;17.31;62.79
19783;BME280;10051;40.294;-3.754;2022-10-14T04:29:57;94793.50;;;16.72;62.65
19783;BME280;10051;40.294;-3.754;2022-10-14T04:32:23;94786.44;;;16.67;62.78
19783;BME280;10051;40.294;-3.754;2022-10-14T04:34:49;94828.81;;;16.72;63.21
19783;BME280;10051;40.294;-3.754;2022-10-14T04:37:14;94834.63;;;16.74;63.08
19783;BME280;10051;40.294;-3.754;2022-10-14T04:39:40;94885.94;;;17.29;62.61
19783;BME280;10051;40.294;-3.754;2022-10-14T04:42:05;94874.25;;;17.07;62.74
19783;BME280;10051;40.294;-3.754;2022-10-14T04:44:31;94738.75;;;16.39;62.38
19783;BME280;10051;40.294;-3.754;2022-10-14T04:46:56;94831.69;;;16.99;62.67
19783;BME280;10051;40.294;-3.754;2022-10-14T04:49:22;94810.44;;;16.99;62.14
19783;BME280;10051;40.294;-3.754;2022-10-14T04:51:47;94700.03;;;16.15;62.46
19783;BME280;10051;40.294;-3.754;2022-10-14T04:54:13;94827.81;;;17.05;62.55
19783;BME280;10051;40.294;-3.754;2022-10-14T04:56:38;94830.47;;;17.05;62.36
19783;BME280;10051;40.294;-3.754;2022-10-14T04:59:04;94809.78;;;16.79;62.55
19783;BME280;10051;40.294;-3.754;2022-10-14T05:01:30;94822.44;;;16.59;63.61
19783;BME280;10051;40.294;-3.754;2022-10-14T05:03:55;94795.56;;;16.38;63.47
19783;BME280;10051;40.294;-3.754;2022-10-14T05:06:21;94793.66;;;16.16;64.08
19783;BME280;10051;40.294;-3.754;2022-10-14T05:08:46;94814.16;;;16.38;63.85
19783;BME280;10051;40.294;-3.754;2022-10-14T05:11:12;94803.75;;;16.42;63.78
19783;BME280;10051;40.294;-3.754;2022-10-14T05:13:37;94832.84;;;16.70;63.64
19783;BME280;10051;40.294;-3.754;2022-10-14T05:16:03;94805.31;;;16.65;63.06
19783;BME280;10051;40.294;-3.754;2022-10-14T05:18:28;94809.91;;;16.51;63.64
19783;BME280;10051;40.294;-3.754;2022-10-14T05:20:56;94887.00;;;16.97;64.04
19783;BME280;10051;40.294;-3.754;2022-10-14T05:23:22;94757.47;;;15.97;64.47
19783;BME280;10051;40.294;-3.754;2022-10-14T05:25:48;94841.81;;;16.23;65.10
19783;BME280;10051;40.294;-3.754;2022-10-14T05:28:13;94810.56;;;16.20;65.23
19783;BME280;10051;40.294;-3.754;2022-10-14T05:30:39;94845.38;;;16.18;65.95
19783;BME280;10051;40.294;-3.754;2022-10-14T05:33:04;94803.25;;;15.89;66.20
19783;BME280;10051;40.294;-3.754;2022-10-14T05:35:30;94871.31;;;16.22;66.52
19783;BME280;10051;40.294;-3.754;2022-10-14T05:37:56;94869.81;;;16.29;65.50
19783;BME280;10051;40.294;-3.754;2022-10-14T05:40:22;94827.09;;;16.03;65.37
19783;BME280;10051;40.294;-3.754;2022-10-14T05:42:48;94878.94;;;16.51;65.15
19783;BME280;10051;40.294;-3.754;2022-10-14T05:45:13;94810.41;;;16.02;64.70
19783;BME280;10051;40.294;-3.754;2022-10-14T05:47:39;94812.19;;;15.93;64.98
19783;BME280;10051;40.294;-3.754;2022-10-14T05:50:07;94807.06;;;15.69;65.75
19783;BME280;10051;40.294;-3.754;2022-10-14T05:52:32;94717.53;;;15.24;65.12
19783;BME280;10051;40.294;-3.754;2022-10-14T05:54:59;94775.66;;;15.62;65.46
19783;BME280;10051;40.294;-3.754;2022-10-14T05:57:26;94870.81;;;15.91;65.91
19783;BME280;10051;40.294;-3.754;2022-10-14T05:59:52;94848.47;;;15.51;67.05
19783;BME280;10051;40.294;-3.754;2022-10-14T06:02:17;94816.56;;;15.42;66.97
19783;BME280;10051;40.294;-3.754;2022-10-14T06:04:43;94784.06;;;15.36;66.17
19783;BME280;10051;40.294;-3.754;2022-10-14T06:07:08;94841.22;;;15.56;66.33
19783;BME280;10051;40.294;-3.754;2022-10-14T06:09:35;94806.34;;;15.49;66.08
19783;BME280;10051;40.294;-3.754;2022-10-14T06:12:01;94800.34;;;15.29;67.07
19783;BME280;10051;40.294;-3.754;2022-10-14T06:14:27;94748.31;;;15.06;66.20
19783;BME280;10051;40.294;-3.754;2022-10-14T06:16:52;94846.41;;;15.75;66.07
19783;BME280;10051;40.294;-3.754;2022-10-14T06:19:17;94844.75;;;15.80;66.00
19783;BME280;10051;40.294;-3.754;2022-10-14T06:21:43;94785.06;;;15.40;65.29
19783;BME280;10051;40.294;-3.754;2022-10-14T06:24:09;94854.19;;;15.86;65.68
19783;BME280;10051;40.294;-3.754;2022-10-14T06:26:35;94814.88;;;15.46;66.17
19783;BME280;10051;40.294;-3.754;2022-10-14T06:29:01;94872.84;;;15.81;66.49
19783;BME280;10051;40.294;-3.754;2022-10-14T06:31:26;94883.00;;;15.93;66.05
19783;BME280;10051;40.294;-3.754;2022-10-14T06:33:52;94787.22;;;15.52;65.24
19783;BME280;10051;40.294;-3.754;2022-10-14T06:36:17;94813.91;;;15.84;64.67
19783;BME280;10051;40.294;-3.754;2022-10-14T06:38:46;94566.16;;;14.33;64.57
19783;BME280;10051;40.294;-3.754;2022-10-14T06:41:13;94536.03;;;14.01;64.48
19783;BME280;10051;40.294;-3.754;2022-10-14T06:43:39;94526.38;;;13.77;65.31
19783;BME280;10051;40.294;-3.754;2022-10-14T06:46:05;94830.06;;;16.01;65.18
19783;BME280;10051;40.294;-3.754;2022-10-14T06:48:30;94805.97;;;15.84;65.08
19783;BME280;10051;40.294;-3.754;2022-10-14T06:51:00;94805.59;;;15.63;66.51
19783;BME280;10051;40.294;-3.754;2022-10-14T06:53:27;94735.13;;;15.20;66.34
19783;BME280;10051;40.294;-3.754;2022-10-14T06:56:03;94876.03;;;16.11;66.31
19783;BME280;10051;40.294;-3.754;2022-10-14T06:58:29;94880.91;;;16.31;65.53
19783;BME280;10051;40.294;-3.754;2022-10-14T07:01:00;94708.81;;;15.23;64.98
19783;BME280;10051;40.294;-3.754;2022-10-14T07:03:25;94799.69;;;15.94;64.97
19783;BME280;10051;40.294;-3.754;2022-10-14T07:05:51;94865.94;;;16.49;64.37
19783;BME280;10051;40.294;-3.754;2022-10-14T07:08:16;94811.75;;;16.28;63.82
19783;BME280;10051;40.294;-3.754;2022-10-14T07:10:42;94836.28;;;16.33;64.26
19783;BME280;10051;40.294;-3.754;2022-10-14T07:13:07;94871.59;;;16.71;64.21
19783;BME280;10051;40.294;-3.754;2022-10-14T07:15:32;94895.31;;;16.90;63.48
19783;BME280;10051;40.294;-3.754;2022-10-14T07:17:58;94756.59;;;15.88;63.50
19783;BME280;10051;40.294;-3.754;2022-10-14T07:20:23;94889.25;;;16.89;63.67
19783;BME280;10051;40.294;-3.754;2022-10-14T07:22:53;94779.53;;;16.20;63.76
19783;BME280;10051;40.294;-3.754;2022-10-14T07:25:19;94823.66;;;16.53;63.38
19783;BME280;10051;40.294;-3.754;2022-10-14T07:27:45;94722.31;;;15.91;62.76
19783;BME280;10051;40.294;-3.754;2022-10-14T07:30:11;94879.22;;;16.86;63.26
19783;BME280;10051;40.294;-3.754;2022-10-14T07:32:36;94828.94;;;16.67;63.03
19783;BME280;10051;40.294;-3.754;2022-10-14T07:35:02;94836.59;;;16.69;63.62
19783;BME280;10051;40.294;-3.754;2022-10-14T07:37:28;94863.09;;;16.97;62.73
19783;BME280;10051;40.294;-3.754;2022-10-14T07:39:53;94774.00;;;16.31;62.67
19783;BME280;10051;40.294;-3.754;2022-10-14T07:42:19;94916.94;;;17.34;62.94
19783;BME280;10051;40.294;-3.754;2022-10-14T07:44:44;94922.00;;;17.44;62.10
19783;BME280;10051;40.294;-3.754;2022-10-14T07:47:10;94901.03;;;17.43;60.53
19783;BME280;10051;40.294;-3.754;2022-10-14T07:49:35;94839.38;;;17.09;60.09
19783;BME280;10051;40.294;-3.754;2022-10-14T07:52:01;94870.53;;;17.40;59.40
19783;BME280;10051;40.294;-3.754;2022-10-14T07:54:27;94825.75;;;17.24;59.41
19783;BME280;10051;40.294;-3.754;2022-10-14T07:56:57;94926.75;;;18.10;59.05
19783;BME280;10051;40.294;-3.754;2022-10-14T07:59:23;94720.34;;;16.65;59.20
19783;BME280;10051;40.294;-3.754;2022-10-14T08:01:51;94931.94;;;18.16;58.75
19783;BME280;10051;40.294;-3.754;2022-10-14T08:04:17;94929.13;;;18.21;58.99
19783;BME280;10051;40.294;-3.754;2022-10-14T08:06:46;94936.41;;;18.55;58.57
19783;BME280;10051;40.294;-3.754;2022-10-14T08:09:12;94895.50;;;18.34;57.81
19783;BME280;10051;40.294;-3.754;2022-10-14T08:11:37;94881.22;;;18.21;57.38
19783;BME280;10051;40.294;-3.754;2022-10-14T08:14:04;94947.44;;;18.71;57.24
19783;BME280;10051;40.294;-3.754;2022-10-14T08:16:32;94951.81;;;18.67;56.90
19783;BME280;10051;40.294;-3.754;2022-10-14T08:19:01;94921.78;;;18.26;57.05
19783;BME280;10051;40.294;-3.754;2022-10-14T08:21:27;94886.59;;;17.98;57.53
19783;BME280;10051;40.294;-3.754;2022-10-14T08:23:53;94951.53;;;18.28;57.89
19783;BME280;10051;40.294;-3.754;2022-10-14T08:26:27;94945.69;;;18.67;57.49
19783;BME280;10051;40.294;-3.754;2022-10-14T08:28:54;94957.47;;;18.83;56.75
19783;BME280;10051;40.294;-3.754;2022-10-14T08:31:19;94897.22;;;18.38;56.69
19783;BME280;10051;40.294;-3.754;2022-10-14T08:33:45;94944.59;;;18.59;56.65
19783;BME280;10051;40.294;-3.754;2022-10-14T08:36:11;94966.56;;;18.82;56.71
19783;BME280;10051;40.294;-3.754;2022-10-14T08:38:37;94966.91;;;18.98;55.56
19783;BME280;10051;40.294;-3.754;2022-10-14T08:46:23;94961.91;;;18.97;55.16
19783;BME280;10051;40.294;-3.754;2022-10-14T08:48:57;94965.00;;;18.90;55.98
19783;BME280;10051;40.294;-3.754;2022-10-14T08:51:27;94879.09;;;18.58;54.60
19783;BME280;10051;40.294;-3.754;2022-10-14T08:53:58;94939.50;;;19.15;53.38
19783;BME280;10051;40.294;-3.754;2022-10-14T08:56:27;94914.72;;;19.24;53.51
19783;BME280;10051;40.294;-3.754;2022-10-14T08:58:55;94937.59;;;19.51;52.70
19783;BME280;10051;40.294;-3.754;2022-10-14T09:01:35;94936.31;;;19.57;51.86
19783;BME280;10051;40.294;-3.754;2022-10-14T09:04:07;94954.97;;;19.66;52.35
19783;BME280;10051;40.294;-3.754;2022-10-14T09:06:40;94944.13;;;19.71;52.16
19783;BME280;10051;40.294;-3.754;2022-10-14T09:11:41;94899.75;;;19.58;51.20
19783;BME280;10051;40.294;-3.754;2022-10-14T09:14:12;94979.09;;;20.05;51.60
19783;BME280;10051;40.294;-3.754;2022-10-14T09:16:40;94978.63;;;19.94;51.52
19783;BME280;10051;40.294;-3.754;2022-10-14T09:19:30;94976.88;;;20.07;51.04
19783;BME280;10051;40.294;-3.754;2022-10-14T09:21:58;94935.78;;;19.90;50.91
19783;BME280;10051;40.294;-3.754;2022-10-14T09:24:34;94942.34;;;20.02;51.19
19783;BME280;10051;40.294;-3.754;2022-10-14T09:27:03;94971.56;;;20.37;50.40
19783;BME280;10051;40.294;-3.754;2022-10-14T09:29:40;94948.19;;;20.34;50.24
19783;BME280;10051;40.294;-3.754;2022-10-14T09:32:12;94971.94;;;20.57;49.64
19783;BME280;10051;40.294;-3.754;2022-10-14T09:34:49;94978.00;;;20.75;49.90
19783;BME280;10051;40.294;-3.754;2022-10-14T09:37:33;94825.91;;;19.88;49.18
19783;BME280;10051;40.294;-3.754;2022-10-14T09:42:57;94973.09;;;21.28;48.83
19783;BME280;10051;40.294;-3.754;2022-10-14T09:45:25;94973.00;;;21.37;47.72
19783;BME280;10051;40.294;-3.754;2022-10-14T09:50:37;94961.59;;;21.28;47.52
19783;BME280;10051;40.294;-3.754;2022-10-14T09:53:12;94923.72;;;20.83;47.58
19783;BME280;10051;40.294;-3.754;2022-10-14T09:55:51;94948.97;;;21.16;47.26
19783;BME280;10051;40.294;-3.754;2022-10-14T09:58:26;94936.59;;;21.11;47.25
19783;BME280;10051;40.294;-3.754;2022-10-14T10:00:58;94902.09;;;20.97;46.91
19783;BME280;10051;40.294;-3.754;2022-10-14T10:03:32;94912.81;;;21.31;46.20
19783;BME280;10051;40.294;-3.754;2022-10-14T10:06:10;94961.72;;;21.52;46.11
19783;BME280;10051;40.294;-3.754;2022-10-14T10:08:53;94925.47;;;21.21;47.15
19783;BME280;10051;40.294;-3.754;2022-10-14T10:13:52;94958.38;;;21.77;46.85
19783;BME280;10051;40.294;-3.754;2022-10-14T10:16:30;94960.84;;;21.94;46.16
19783;BME280;10051;40.294;-3.754;2022-10-14T10:18:56;94858.34;;;21.35;46.52
19783;BME280;10051;40.294;-3.754;2022-10-14T10:21:29;94903.25;;;21.63;46.45
19783;BME280;10051;40.294;-3.754;2022-10-14T10:23:56;94949.47;;;21.97;45.80
19783;BME280;10051;40.294;-3.754;2022-10-14T10:28:54;94949.72;;;22.05;45.33
19783;BME280;10051;40.294;-3.754;2022-10-14T10:37:27;94953.06;;;22.39;44.71
19783;BME280;10051;40.294;-3.754;2022-10-14T10:40:26;94951.06;;;22.36;45.04
19783;BME280;10051;40.294;-3.754;2022-10-14T10:46:08;94942.28;;;22.60;45.21
19783;BME280;10051;40.294;-3.754;2022-10-14T10:48:40;94952.91;;;22.69;44.95
19783;BME280;10051;40.294;-3.754;2022-10-14T10:51:32;94940.78;;;22.87;45.37
19783;BME280;10051;40.294;-3.754;2022-10-14T10:54:07;94923.03;;;22.95;45.21
19783;BME280;10051;40.294;-3.754;2022-10-14T10:56:49;94937.59;;;23.23;44.15
19783;BME280;10051;40.294;-3.754;2022-10-14T10:59:53;94924.72;;;23.28;43.79
19783;BME280;10051;40.294;-3.754;2022-10-14T11:02:52;94922.56;;;23.34;43.42
19783;BME280;10051;40.294;-3.754;2022-10-14T11:08:26;94873.03;;;23.03;42.36
19783;BME280;10051;40.294;-3.754;2022-10-14T11:11:26;94914.38;;;23.43;42.12
19783;BME280;10051;40.294;-3.754;2022-10-14T11:14:14;94911.47;;;23.64;42.53
19783;BME280;10051;40.294;-3.754;2022-10-14T11:19:53;94861.94;;;23.77;42.00
19783;BME280;10051;40.294;-3.754;2022-10-14T11:30:39;94827.63;;;24.19;40.71
19783;BME280;10051;40.294;-3.754;2022-10-14T11:33:27;94873.81;;;24.60;39.82
19783;BME280;10051;40.294;-3.754;2022-10-14T11:36:16;94897.19;;;24.72;39.97
19783;BME280;10051;40.294;-3.754;2022-10-14T11:44:33;94885.41;;;25.20;39.84
19783;BME280;10051;40.294;-3.754;2022-10-14T11:47:10;94790.22;;;24.65;39.27
19783;BME280;10051;40.294;-3.754;2022-10-14T11:52:27;94827.03;;;25.20;39.00
19783;BME280;10051;40.294;-3.754;2022-10-14T11:55:02;94869.38;;;25.66;38.77
19783;BME280;10051;40.294;-3.754;2022-10-14T11:57:38;94865.75;;;25.78;38.50
19783;BME280;10051;40.294;-3.754;2022-10-14T12:00:12;94824.25;;;25.60;38.05
19783;BME280;10051;40.294;-3.754;2022-10-14T12:03:01;94750.31;;;25.30;38.27
19783;BME280;10051;40.294;-3.754;2022-10-14T12:08:31;94851.78;;;26.19;35.95
19783;BME280;10051;40.294;-3.754;2022-10-14T12:11:34;94848.09;;;26.31;36.65
19783;BME280;10051;40.294;-3.754;2022-10-14T12:14:20;94812.88;;;26.17;35.17
19783;BME280;10051;40.294;-3.754;2022-10-14T12:16:48;94738.09;;;25.87;35.57
19783;BME280;10051;40.294;-3.754;2022-10-14T12:19:22;94831.19;;;26.61;35.11
19783;BME280;10051;40.294;-3.754;2022-10-14T12:21:56;94773.81;;;26.34;35.03
19783;BME280;10051;40.294;-3.754;2022-10-14T12:24:28;94829.78;;;26.75;33.90
19783;BME280;10051;40.294;-3.754;2022-10-14T12:26:57;94700.09;;;25.92;34.01
19783;BME280;10051;40.294;-3.754;2022-10-14T12:29:34;94782.53;;;26.54;33.50
19783;BME280;10051;40.294;-3.754;2022-10-14T12:34:37;94799.19;;;26.90;33.88
19783;BME280;10051;40.294;-3.754;2022-10-14T12:37:39;94793.13;;;27.00;33.37
19783;BME280;10051;40.294;-3.754;2022-10-14T12:42:52;94790.94;;;27.13;32.18
19783;BME280;10051;40.294;-3.754;2022-10-14T12:45:23;94766.91;;;27.01;32.05
19783;BME280;10051;40.294;-3.754;2022-10-14T12:48:06;94779.44;;;27.20;31.73
19783;BME280;10051;40.294;-3.754;2022-10-14T12:50:38;94780.16;;;27.17;32.12
19783;BME280;10051;40.294;-3.754;2022-10-14T12:53:14;94765.56;;;27.22;32.49
19783;BME280;10051;40.294;-3.754;2022-10-14T12:55:56;94742.75;;;27.12;32.55
19783;BME280;10051;40.294;-3.754;2022-10-14T13:00:58;94723.78;;;27.05;31.80
19783;BME280;10051;40.294;-3.754;2022-10-14T13:03:27;94733.44;;;27.09;31.49
19783;BME280;10051;40.294;-3.754;2022-10-14T13:06:28;94757.22;;;27.34;31.52
19783;BME280;10051;40.294;-3.754;2022-10-14T13:11:36;94725.50;;;27.24;30.62
19783;BME280;10051;40.294;-3.754;2022-10-14T13:22:00;94694.69;;;27.28;31.44
19783;BME280;10051;40.294;-3.754;2022-10-14T13:24:37;94732.38;;;27.63;31.31
19783;BME280;10051;40.294;-3.754;2022-10-14T13:27:17;94720.47;;;27.67;31.21
19783;BME280;10051;40.294;-3.754;2022-10-14T13:37:44;94705.81;;;27.72;30.65
19783;BME280;10051;40.294;-3.754;2022-10-14T13:40:20;94709.78;;;27.85;30.64
19783;BME280;10051;40.294;-3.754;2022-10-14T13:42:54;94672.59;;;27.64;30.37
19783;BME280;10051;40.294;-3.754;2022-10-14T13:45:27;94698.97;;;27.89;30.27
19783;BME280;10051;40.294;-3.754;2022-10-14T13:47:54;94670.34;;;27.73;30.64
19783;BME280;10051;40.294;-3.754;2022-10-14T13:50:22;94692.41;;;27.90;30.15
19783;BME280;10051;40.294;-3.754;2022-10-14T13:52:58;94688.16;;;27.85;29.82
19783;BME280;10051;40.294;-3.754;2022-10-14T13:55:26;94679.66;;;27.87;30.11
19783;BME280;10051;40.294;-3.754;2022-10-14T13:58:03;94666.16;;;27.83;29.94
19783;BME280;10051;40.294;-3.754;2022-10-14T14:00:34;94623.59;;;27.62;29.80
19783;BME280;10051;40.294;-3.754;2022-10-14T14:03:05;94668.06;;;27.83;29.29
19783;BME280;10051;40.294;-3.754;2022-10-14T14:05:35;94610.38;;;27.50;29.75
19783;BME280;10051;40.294;-3.754;2022-10-14T14:08:02;94652.25;;;27.85;29.88
19783;BME280;10051;40.294;-3.754;2022-10-14T14:10:28;94656.13;;;27.87;29.55
19783;BME280;10051;40.294;-3.754;2022-10-14T14:12:54;94615.50;;;27.66;29.56
19783;BME280;10051;40.294;-3.754;2022-10-14T14:15:23;94642.59;;;27.84;29.31
19783;BME280;10051;40.294;-3.754;2022-10-14T14:17:49;94595.44;;;27.63;29.52
19783;BME280;10051;40.294;-3.754;2022-10-14T14:20:19;94647.69;;;27.96;29.90
19783;BME280;10051;40.294;-3.754;2022-10-14T14:22:45;94643.47;;;27.99;28.55
19783;BME280;10051;40.294;-3.754;2022-10-14T14:27:55;94639.56;;;27.93;28.93
19783;BME280;10051;40.294;-3.754;2022-10-14T14:30:26;94579.94;;;27.53;28.99
19783;BME280;10051;40.294;-3.754;2022-10-14T14:32:54;94579.22;;;27.59;29.42
19783;BME280;10051;40.294;-3.754;2022-10-14T14:35:20;94631.06;;;27.90;29.52
19783;BME280;10051;40.294;-3.754;2022-10-14T14:37:46;94547.81;;;27.37;29.41
19783;BME280;10051;40.294;-3.754;2022-10-14T14:40:19;94621.00;;;27.87;28.96
19783;BME280;10051;40.294;-3.754;2022-10-14T14:42:48;94610.13;;;27.69;28.10
19783;BME280;10051;40.294;-3.754;2022-10-14T14:45:26;94620.94;;;27.69;28.85
19783;BME280;10051;40.294;-3.754;2022-10-14T14:47:55;94529.16;;;27.10;28.87